sensor_id;sensor_type;location;lat;lon;timestamp;pressure;altitude;pressure_sealevel;temperature
44429;BMP180;30134;47.866;-4.222;2022-08-19T00:00:06;101858.00;;;27.20
44429;BMP180;30134;47.866;-4.222;2022-08-19T00:02:36;101860.00;;;27.40
44429;BMP180;30134;47.866;-4.222;2022-08-19T00:05:03;101855.00;;;27.50
44429;BMP180;30134;47.866;-4.222;2022-08-19T00:07:29;101853.00;;;27.40
44429;BMP180;30134;47.866;-4.222;2022-08-19T00:09:56;101850.00;;;27.40
44429;BMP180;30134;47.866;-4.222;2022-08-19T00:12:21;101853.00;;;27.50
44429;BMP180;30134;47.866;-4.222;2022-08-19T00:14:47;101843.00;;;27.40
44429;BMP180;30134;47.866;-4.222;2022-08-19T00:17:13;101848.00;;;27.40
44429;BMP180;30134;47.866;-4.222;2022-08-19T00:19:39;101854.00;;;27.50
44429;BMP180;30134;47.866;-4.222;2022-08-19T00:22:06;101851.00;;;27.40
44429;BMP180;30134;47.866;-4.222;2022-08-19T00:24:34;101849.00;;;27.40
44429;BMP180;30134;47.866;-4.222;2022-08-19T00:27:01;101838.00;;;27.40
44429;BMP180;30134;47.866;-4.222;2022-08-19T00:29:28;101838.00;;;27.50
44429;BMP180;30134;47.866;-4.222;2022-08-19T00:31:53;101832.00;;;27.40
44429;BMP180;30134;47.866;-4.222;2022-08-19T00:34:22;101836.00;;;27.30
44429;BMP180;30134;47.866;-4.222;2022-08-19T00:36:48;101844.00;;;27.60
44429;BMP180;30134;47.866;-4.222;2022-08-19T00:39:15;101831.00;;;27.50
44429;BMP180;30134;47.866;-4.222;2022-08-19T00:41:43;101828.00;;;27.40
44429;BMP180;30134;47.866;-4.222;2022-08-19T00:44:22;101825.00;;;27.50
44429;BMP180;30134;47.866;-4.222;2022-08-19T00:46:50;101824.00;;;27.50
44429;BMP180;30134;47.866;-4.222;2022-08-19T00:49:37;101829.00;;;27.30
44429;BMP180;30134;47.866;-4.222;2022-08-19T00:52:08;101823.00;;;27.40
44429;BMP180;30134;47.866;-4.222;2022-08-19T00:54:36;101822.00;;;27.40
44429;BMP180;30134;47.866;-4.222;2022-08-19T00:57:05;101823.00;;;27.40
44429;BMP180;30134;47.866;-4.222;2022-08-19T00:59:31;101821.00;;;27.50
44429;BMP180;30134;47.866;-4.222;2022-08-19T01:01:58;101816.00;;;27.40
44429;BMP180;30134;47.866;-4.222;2022-08-19T01:04:24;101817.00;;;27.30
44429;BMP180;30134;47.866;-4.222;2022-08-19T01:06:49;101814.00;;;27.60
44429;BMP180;30134;47.866;-4.222;2022-08-19T01:09:16;101817.00;;;27.40
44429;BMP180;30134;47.866;-4.222;2022-08-19T01:11:42;101814.00;;;27.40
44429;BMP180;30134;47.866;-4.222;2022-08-19T01:14:09;101805.00;;;27.20
44429;BMP180;30134;47.866;-4.222;2022-08-19T01:16:35;101803.00;;;27.60
44429;BMP180;30134;47.866;-4.222;2022-08-19T01:19:02;101806.00;;;27.60
44429;BMP180;30134;47.866;-4.222;2022-08-19T01:21:37;101798.00;;;27.30
44429;BMP180;30134;47.866;-4.222;2022-08-19T01:24:04;101798.00;;;27.60
44429;BMP180;30134;47.866;-4.222;2022-08-19T01:26:30;101794.00;;;27.50
44429;BMP180;30134;47.866;-4.222;2022-08-19T01:28:58;101792.00;;;27.30
44429;BMP180;30134;47.866;-4.222;2022-08-19T01:31:26;101802.00;;;27.50
44429;BMP180;30134;47.866;-4.222;2022-08-19T01:33:55;101800.00;;;27.20
44429;BMP180;30134;47.866;-4.222;2022-08-19T01:36:25;101795.00;;;27.50
44429;BMP180;30134;47.866;-4.222;2022-08-19T01:38:52;101805.00;;;27.50
44429;BMP180;30134;47.866;-4.222;2022-08-19T01:41:18;101799.00;;;27.40
44429;BMP180;30134;47.866;-4.222;2022-08-19T01:43:45;101794.00;;;27.30
44429;BMP180;30134;47.866;-4.222;2022-08-19T01:46:11;101796.00;;;27.60
44429;BMP180;30134;47.866;-4.222;2022-08-19T01:48:41;101797.00;;;27.50
44429;BMP180;30134;47.866;-4.222;2022-08-19T01:51:07;101793.00;;;27.50
44429;BMP180;30134;47.866;-4.222;2022-08-19T01:53:34;101797.00;;;27.30
44429;BMP180;30134;47.866;-4.222;2022-08-19T01:56:00;101807.00;;;27.60
44429;BMP180;30134;47.866;-4.222;2022-08-19T01:58:32;101803.00;;;27.20
44429;BMP180;30134;47.866;-4.222;2022-08-19T02:01:02;101802.00;;;27.50
44429;BMP180;30134;47.866;-4.222;2022-08-19T02:03:29;101801.00;;;27.30
44429;BMP180;30134;47.866;-4.222;2022-08-19T02:05:59;101803.00;;;27.50
44429;BMP180;30134;47.866;-4.222;2022-08-19T02:08:26;101802.00;;;27.30
44429;BMP180;30134;47.866;-4.222;2022-08-19T02:10:57;101798.00;;;27.50
44429;BMP180;30134;47.866;-4.222;2022-08-19T02:13:23;101805.00;;;27.50
44429;BMP180;30134;47.866;-4.222;2022-08-19T02:15:49;101798.00;;;27.50
44429;BMP180;30134;47.866;-4.222;2022-08-19T02:18:15;101803.00;;;27.40
44429;BMP180;30134;47.866;-4.222;2022-08-19T02:20:42;101803.00;;;27.60
44429;BMP180;30134;47.866;-4.222;2022-08-19T02:23:09;101807.00;;;27.40
44429;BMP180;30134;47.866;-4.222;2022-08-19T02:25:35;101811.00;;;27.50
44429;BMP180;30134;47.866;-4.222;2022-08-19T02:28:01;101805.00;;;27.40
44429;BMP180;30134;47.866;-4.222;2022-08-19T02:30:27;101805.00;;;27.70
44429;BMP180;30134;47.866;-4.222;2022-08-19T02:32:53;101811.00;;;27.30
44429;BMP180;30134;47.866;-4.222;2022-08-19T02:35:19;101805.00;;;27.50
44429;BMP180;30134;47.866;-4.222;2022-08-19T02:37:46;101806.00;;;27.40
44429;BMP180;30134;47.866;-4.222;2022-08-19T02:40:31;101801.00;;;27.50
44429;BMP180;30134;47.866;-4.222;2022-08-19T02:43:04;101807.00;;;27.50
44429;BMP180;30134;47.866;-4.222;2022-08-19T02:45:37;101806.00;;;27.40
44429;BMP180;30134;47.866;-4.222;2022-08-19T02:48:06;101818.00;;;27.30
44429;BMP180;30134;47.866;-4.222;2022-08-19T02:50:38;101821.00;;;27.50
44429;BMP180;30134;47.866;-4.222;2022-08-19T02:53:04;101814.00;;;27.50
44429;BMP180;30134;47.866;-4.222;2022-08-19T02:55:32;101814.00;;;27.40
44429;BMP180;30134;47.866;-4.222;2022-08-19T02:57:58;101817.00;;;27.30
44429;BMP180;30134;47.866;-4.222;2022-08-19T03:00:26;101816.00;;;27.50
44429;BMP180;30134;47.866;-4.222;2022-08-19T03:02:52;101808.00;;;27.50
44429;BMP180;30134;47.866;-4.222;2022-08-19T03:05:18;101799.00;;;27.50
44429;BMP180;30134;47.866;-4.222;2022-08-19T03:07:44;101810.00;;;27.20
44429;BMP180;30134;47.866;-4.222;2022-08-19T03:10:12;101821.00;;;27.30
44429;BMP180;30134;47.866;-4.222;2022-08-19T03:12:38;101814.00;;;27.40
44429;BMP180;30134;47.866;-4.222;2022-08-19T03:15:06;101807.00;;;27.30
44429;BMP180;30134;47.866;-4.222;2022-08-19T03:17:33;101814.00;;;27.40
44429;BMP180;30134;47.866;-4.222;2022-08-19T03:19:59;101814.00;;;27.50
44429;BMP180;30134;47.866;-4.222;2022-08-19T03:22:26;101815.00;;;27.40
44429;BMP180;30134;47.866;-4.222;2022-08-19T03:24:52;101812.00;;;27.30
44429;BMP180;30134;47.866;-4.222;2022-08-19T03:27:19;101815.00;;;27.40
44429;BMP180;30134;47.866;-4.222;2022-08-19T03:29:44;101813.00;;;27.40
44429;BMP180;30134;47.866;-4.222;2022-08-19T03:32:11;101808.00;;;27.40
44429;BMP180;30134;47.866;-4.222;2022-08-19T03:34:37;101808.00;;;27.40
44429;BMP180;30134;47.866;-4.222;2022-08-19T03:37:07;101811.00;;;27.50
44429;BMP180;30134;47.866;-4.222;2022-08-19T03:39:35;101806.00;;;27.60
44429;BMP180;30134;47.866;-4.222;2022-08-19T03:42:01;101812.00;;;27.20
44429;BMP180;30134;47.866;-4.222;2022-08-19T03:44:28;101811.00;;;27.40
44429;BMP180;30134;47.866;-4.222;2022-08-19T03:46:56;101801.00;;;27.30
44429;BMP180;30134;47.866;-4.222;2022-08-19T03:49:24;101810.00;;;27.60
44429;BMP180;30134;47.866;-4.222;2022-08-19T03:51:53;101808.00;;;27.40
44429;BMP180;30134;47.866;-4.222;2022-08-19T03:54:22;101797.00;;;27.60
44429;BMP180;30134;47.866;-4.222;2022-08-19T03:56:52;101803.00;;;27.20
44429;BMP180;30134;47.866;-4.222;2022-08-19T03:59:25;101796.00;;;27.30
44429;BMP180;30134;47.866;-4.222;2022-08-19T04:01:54;101803.00;;;27.50
44429;BMP180;30134;47.866;-4.222;2022-08-19T04:04:20;101810.00;;;27.30
44429;BMP180;30134;47.866;-4.222;2022-08-19T04:06:47;101810.00;;;27.50
44429;BMP180;30134;47.866;-4.222;2022-08-19T04:09:13;101817.00;;;27.30
44429;BMP180;30134;47.866;-4.222;2022-08-19T04:11:47;101815.00;;;27.40
44429;BMP180;30134;47.866;-4.222;2022-08-19T04:14:17;101820.00;;;27.20
44429;BMP180;30134;47.866;-4.222;2022-08-19T04:16:44;101823.00;;;27.50
44429;BMP180;30134;47.866;-4.222;2022-08-19T04:19:10;101826.00;;;27.40
44429;BMP180;30134;47.866;-4.222;2022-08-19T04:21:37;101822.00;;;27.50
44429;BMP180;30134;47.866;-4.222;2022-08-19T04:24:03;101824.00;;;27.20
44429;BMP180;30134;47.866;-4.222;2022-08-19T04:26:33;101822.00;;;27.40
44429;BMP180;30134;47.866;-4.222;2022-08-19T04:29:05;101827.00;;;27.40
44429;BMP180;30134;47.866;-4.222;2022-08-19T04:31:32;101825.00;;;27.50
44429;BMP180;30134;47.866;-4.222;2022-08-19T04:34:02;101828.00;;;27.30
44429;BMP180;30134;47.866;-4.222;2022-08-19T04:36:31;101828.00;;;27.50
44429;BMP180;30134;47.866;-4.222;2022-08-19T04:38:59;101824.00;;;27.50
44429;BMP180;30134;47.866;-4.222;2022-08-19T04:41:25;101825.00;;;27.30
44429;BMP180;30134;47.866;-4.222;2022-08-19T04:44:10;101831.00;;;27.10
44429;BMP180;30134;47.866;-4.222;2022-08-19T04:46:36;101833.00;;;27.40
44429;BMP180;30134;47.866;-4.222;2022-08-19T04:49:03;101834.00;;;27.50
44429;BMP180;30134;47.866;-4.222;2022-08-19T04:51:31;101831.00;;;27.40
44429;BMP180;30134;47.866;-4.222;2022-08-19T04:53:57;101826.00;;;27.40
44429;BMP180;30134;47.866;-4.222;2022-08-19T04:56:24;101822.00;;;27.30
44429;BMP180;30134;47.866;-4.222;2022-08-19T04:58:52;101823.00;;;27.50
44429;BMP180;30134;47.866;-4.222;2022-08-19T05:01:24;101823.00;;;27.30
44429;BMP180;30134;47.866;-4.222;2022-08-19T05:03:50;101826.00;;;27.20
44429;BMP180;30134;47.866;-4.222;2022-08-19T05:06:19;101827.00;;;27.50
44429;BMP180;30134;47.866;-4.222;2022-08-19T05:08:46;101834.00;;;27.30
44429;BMP180;30134;47.866;-4.222;2022-08-19T05:11:24;101838.00;;;27.40
44429;BMP180;30134;47.866;-4.222;2022-08-19T05:13:51;101836.00;;;27.20
44429;BMP180;30134;47.866;-4.222;2022-08-19T05:16:19;101842.00;;;27.50
44429;BMP180;30134;47.866;-4.222;2022-08-19T05:18:45;101843.00;;;27.30
44429;BMP180;30134;47.866;-4.222;2022-08-19T05:21:30;101849.00;;;27.40
44429;BMP180;30134;47.866;-4.222;2022-08-19T05:24:17;101839.00;;;27.30
44429;BMP180;30134;47.866;-4.222;2022-08-19T05:26:45;101852.00;;;27.50
44429;BMP180;30134;47.866;-4.222;2022-08-19T05:29:16;101845.00;;;27.30
44429;BMP180;30134;47.866;-4.222;2022-08-19T05:31:42;101848.00;;;27.30
44429;BMP180;30134;47.866;-4.222;2022-08-19T05:34:08;101851.00;;;27.40
44429;BMP180;30134;47.866;-4.222;2022-08-19T05:36:40;101856.00;;;27.50
44429;BMP180;30134;47.866;-4.222;2022-08-19T05:39:15;101861.00;;;27.40
44429;BMP180;30134;47.866;-4.222;2022-08-19T05:41:45;101865.00;;;27.40
44429;BMP180;30134;47.866;-4.222;2022-08-19T05:44:11;101857.00;;;27.30
44429;BMP180;30134;47.866;-4.222;2022-08-19T05:46:38;101859.00;;;27.30
44429;BMP180;30134;47.866;-4.222;2022-08-19T05:49:06;101869.00;;;27.40
44429;BMP180;30134;47.866;-4.222;2022-08-19T05:51:33;101865.00;;;27.30
44429;BMP180;30134;47.866;-4.222;2022-08-19T05:54:00;101861.00;;;27.20
44429;BMP180;30134;47.866;-4.222;2022-08-19T05:56:26;101864.00;;;27.20
44429;BMP180;30134;47.866;-4.222;2022-08-19T05:58:52;101853.00;;;27.10
44429;BMP180;30134;47.866;-4.222;2022-08-19T06:01:20;101860.00;;;27.40
44429;BMP180;30134;47.866;-4.222;2022-08-19T06:03:46;101865.00;;;27.30
44429;BMP180;30134;47.866;-4.222;2022-08-19T06:06:14;101865.00;;;27.40
44429;BMP180;30134;47.866;-4.222;2022-08-19T06:08:40;101871.00;;;27.20
44429;BMP180;30134;47.866;-4.222;2022-08-19T06:11:23;101864.00;;;27.20
44429;BMP180;30134;47.866;-4.222;2022-08-19T06:13:52;101863.00;;;27.40
44429;BMP180;30134;47.866;-4.222;2022-08-19T06:16:21;101862.00;;;27.50
44429;BMP180;30134;47.866;-4.222;2022-08-19T06:18:53;101861.00;;;27.10
44429;BMP180;30134;47.866;-4.222;2022-08-19T06:21:23;101864.00;;;27.60
44429;BMP180;30134;47.866;-4.222;2022-08-19T06:23:51;101856.00;;;27.30
44429;BMP180;30134;47.866;-4.222;2022-08-19T06:26:19;101860.00;;;27.20
44429;BMP180;30134;47.866;-4.222;2022-08-19T06:28:46;101861.00;;;27.10
44429;BMP180;30134;47.866;-4.222;2022-08-19T06:31:17;101858.00;;;27.50
44429;BMP180;30134;47.866;-4.222;2022-08-19T06:33:44;101855.00;;;27.40
44429;BMP180;30134;47.866;-4.222;2022-08-19T06:36:34;101856.00;;;27.40
44429;BMP180;30134;47.866;-4.222;2022-08-19T06:41:29;101857.00;;;27.50
44429;BMP180;30134;47.866;-4.222;2022-08-19T06:43:56;101863.00;;;27.40
44429;BMP180;30134;47.866;-4.222;2022-08-19T06:46:23;101857.00;;;27.30
44429;BMP180;30134;47.866;-4.222;2022-08-19T06:48:49;101861.00;;;27.10
44429;BMP180;30134;47.866;-4.222;2022-08-19T06:51:16;101857.00;;;27.50
44429;BMP180;30134;47.866;-4.222;2022-08-19T06:53:47;101857.00;;;27.40
44429;BMP180;30134;47.866;-4.222;2022-08-19T06:56:14;101864.00;;;27.40
44429;BMP180;30134;47.866;-4.222;2022-08-19T06:58:41;101864.00;;;27.20
44429;BMP180;30134;47.866;-4.222;2022-08-19T07:01:08;101859.00;;;27.50
44429;BMP180;30134;47.866;-4.222;2022-08-19T07:03:36;101858.00;;;27.10
44429;BMP180;30134;47.866;-4.222;2022-08-19T07:06:04;101852.00;;;27.30
44429;BMP180;30134;47.866;-4.222;2022-08-19T07:08:32;101858.00;;;27.00
44429;BMP180;30134;47.866;-4.222;2022-08-19T07:10:59;101860.00;;;27.20
44429;BMP180;30134;47.866;-4.222;2022-08-19T07:13:25;101869.00;;;27.20
44429;BMP180;30134;47.866;-4.222;2022-08-19T07:15:51;101863.00;;;27.30
44429;BMP180;30134;47.866;-4.222;2022-08-19T07:18:19;101859.00;;;27.30
44429;BMP180;30134;47.866;-4.222;2022-08-19T07:20:47;101863.00;;;27.10
44429;BMP180;30134;47.866;-4.222;2022-08-19T07:23:13;101859.00;;;26.90
44429;BMP180;30134;47.866;-4.222;2022-08-19T07:25:39;101861.00;;;27.40
44429;BMP180;30134;47.866;-4.222;2022-08-19T07:28:05;101870.00;;;27.00
44429;BMP180;30134;47.866;-4.222;2022-08-19T07:30:36;101863.00;;;27.20
44429;BMP180;30134;47.866;-4.222;2022-08-19T07:33:03;101862.00;;;27.00
44429;BMP180;30134;47.866;-4.222;2022-08-19T07:35:29;101871.00;;;27.60
44429;BMP180;30134;47.866;-4.222;2022-08-19T07:37:56;101875.00;;;27.30
44429;BMP180;30134;47.866;-4.222;2022-08-19T07:40:25;101872.00;;;27.20
44429;BMP180;30134;47.866;-4.222;2022-08-19T07:42:51;101872.00;;;27.10
44429;BMP180;30134;47.866;-4.222;2022-08-19T07:45:17;101874.00;;;27.30
44429;BMP180;30134;47.866;-4.222;2022-08-19T07:47:43;101875.00;;;27.10
44429;BMP180;30134;47.866;-4.222;2022-08-19T07:50:10;101874.00;;;27.20
44429;BMP180;30134;47.866;-4.222;2022-08-19T07:52:37;101879.00;;;27.20
44429;BMP180;30134;47.866;-4.222;2022-08-19T07:55:09;101876.00;;;27.00
44429;BMP180;30134;47.866;-4.222;2022-08-19T07:57:35;101884.00;;;27.00
44429;BMP180;30134;47.866;-4.222;2022-08-19T08:00:03;101883.00;;;27.10
44429;BMP180;30134;47.866;-4.222;2022-08-19T08:02:31;101879.00;;;27.00
44429;BMP180;30134;47.866;-4.222;2022-08-19T08:04:57;101879.00;;;27.20
44429;BMP180;30134;47.866;-4.222;2022-08-19T08:07:41;101880.00;;;27.10
44429;BMP180;30134;47.866;-4.222;2022-08-19T08:10:27;101877.00;;;27.00
44429;BMP180;30134;47.866;-4.222;2022-08-19T08:12:53;101892.00;;;27.20
44429;BMP180;30134;47.866;-4.222;2022-08-19T08:15:21;101883.00;;;27.20
44429;BMP180;30134;47.866;-4.222;2022-08-19T08:17:47;101893.00;;;27.10
44429;BMP180;30134;47.866;-4.222;2022-08-19T08:20:13;101891.00;;;26.90
44429;BMP180;30134;47.866;-4.222;2022-08-19T08:22:44;101889.00;;;26.90
44429;BMP180;30134;47.866;-4.222;2022-08-19T08:25:31;101894.00;;;27.20
44429;BMP180;30134;47.866;-4.222;2022-08-19T08:27:58;101901.00;;;27.10
44429;BMP180;30134;47.866;-4.222;2022-08-19T08:30:30;101902.00;;;27.10
44429;BMP180;30134;47.866;-4.222;2022-08-19T08:33:02;101902.00;;;27.10
44429;BMP180;30134;47.866;-4.222;2022-08-19T08:35:29;101899.00;;;27.20
44429;BMP180;30134;47.866;-4.222;2022-08-19T08:37:57;101893.00;;;27.10
44429;BMP180;30134;47.866;-4.222;2022-08-19T08:43:24;101899.00;;;26.90
44429;BMP180;30134;47.866;-4.222;2022-08-19T08:46:01;101889.00;;;27.20
44429;BMP180;30134;47.866;-4.222;2022-08-19T08:48:40;101894.00;;;27.10
44429;BMP180;30134;47.866;-4.222;2022-08-19T08:51:11;101906.00;;;27.30
44429;BMP180;30134;47.866;-4.222;2022-08-19T08:53:39;101901.00;;;27.10
44429;BMP180;30134;47.866;-4.222;2022-08-19T08:56:07;101900.00;;;26.90
44429;BMP180;30134;47.866;-4.222;2022-08-19T08:59:02;101900.00;;;27.00
44429;BMP180;30134;47.866;-4.222;2022-08-19T09:01:34;101907.00;;;27.00
44429;BMP180;30134;47.866;-4.222;2022-08-19T09:04:04;101913.00;;;27.20
44429;BMP180;30134;47.866;-4.222;2022-08-19T09:09:40;101916.00;;;27.10
44429;BMP180;30134;47.866;-4.222;2022-08-19T09:12:14;101918.00;;;27.10
44429;BMP180;30134;47.866;-4.222;2022-08-19T09:14:56;101917.00;;;27.10
44429;BMP180;30134;47.866;-4.222;2022-08-19T09:17:25;101912.00;;;27.10
44429;BMP180;30134;47.866;-4.222;2022-08-19T09:20:19;101926.00;;;27.30
44429;BMP180;30134;47.866;-4.222;2022-08-19T09:22:45;101925.00;;;27.30
44429;BMP180;30134;47.866;-4.222;2022-08-19T09:25:17;101927.00;;;26.80
44429;BMP180;30134;47.866;-4.222;2022-08-19T09:27:46;101924.00;;;27.10
44429;BMP180;30134;47.866;-4.222;2022-08-19T09:30:23;101930.00;;;27.10
44429;BMP180;30134;47.866;-4.222;2022-08-19T09:32:51;101925.00;;;26.90
44429;BMP180;30134;47.866;-4.222;2022-08-19T09:35:21;101922.00;;;27.00
44429;BMP180;30134;47.866;-4.222;2022-08-19T09:37:49;101924.00;;;27.10
44429;BMP180;30134;47.866;-4.222;2022-08-19T09:40:19;101922.00;;;26.90
44429;BMP180;30134;47.866;-4.222;2022-08-19T09:42:48;101931.00;;;27.10
44429;BMP180;30134;47.866;-4.222;2022-08-19T09:45:16;101918.00;;;27.00
44429;BMP180;30134;47.866;-4.222;2022-08-19T09:47:43;101920.00;;;27.10
44429;BMP180;30134;47.866;-4.222;2022-08-19T09:50:11;101920.00;;;26.90
44429;BMP180;30134;47.866;-4.222;2022-08-19T09:52:38;101918.00;;;27.00
44429;BMP180;30134;47.866;-4.222;2022-08-19T09:55:05;101920.00;;;26.90
44429;BMP180;30134;47.866;-4.222;2022-08-19T09:57:31;101915.00;;;26.90
44429;BMP180;30134;47.866;-4.222;2022-08-19T09:59:57;101923.00;;;27.00
44429;BMP180;30134;47.866;-4.222;2022-08-19T10:02:23;101914.00;;;26.80
44429;BMP180;30134;47.866;-4.222;2022-08-19T10:04:51;101935.00;;;27.10
44429;BMP180;30134;47.866;-4.222;2022-08-19T10:07:36;101930.00;;;27.10
44429;BMP180;30134;47.866;-4.222;2022-08-19T10:10:05;101922.00;;;27.30
44429;BMP180;30134;47.866;-4.222;2022-08-19T10:12:35;101931.00;;;27.10
44429;BMP180;30134;47.866;-4.222;2022-08-19T10:15:01;101926.00;;;27.20
44429;BMP180;30134;47.866;-4.222;2022-08-19T10:17:27;101925.00;;;26.90
44429;BMP180;30134;47.866;-4.222;2022-08-19T10:19:53;101932.00;;;26.90
44429;BMP180;30134;47.866;-4.222;2022-08-19T10:22:19;101934.00;;;26.90
44429;BMP180;30134;47.866;-4.222;2022-08-19T10:24:46;101936.00;;;27.10
44429;BMP180;30134;47.866;-4.222;2022-08-19T10:27:12;101930.00;;;26.80
44429;BMP180;30134;47.866;-4.222;2022-08-19T10:29:39;101937.00;;;27.00
44429;BMP180;30134;47.866;-4.222;2022-08-19T10:32:07;101936.00;;;26.70
44429;BMP180;30134;47.866;-4.222;2022-08-19T10:34:35;101937.00;;;27.00
44429;BMP180;30134;47.866;-4.222;2022-08-19T10:37:03;101931.00;;;27.00
44429;BMP180;30134;47.866;-4.222;2022-08-19T10:39:35;101935.00;;;26.80
44429;BMP180;30134;47.866;-4.222;2022-08-19T10:42:06;101940.00;;;27.10
44429;BMP180;30134;47.866;-4.222;2022-08-19T10:44:33;101940.00;;;27.10
44429;BMP180;30134;47.866;-4.222;2022-08-19T10:47:01;101935.00;;;26.90
44429;BMP180;30134;47.866;-4.222;2022-08-19T10:49:28;101945.00;;;27.20
44429;BMP180;30134;47.866;-4.222;2022-08-19T10:51:56;101941.00;;;26.90
44429;BMP180;30134;47.866;-4.222;2022-08-19T10:54:41;101938.00;;;27.00
44429;BMP180;30134;47.866;-4.222;2022-08-19T10:57:25;101946.00;;;26.80
44429;BMP180;30134;47.866;-4.222;2022-08-19T10:59:57;101950.00;;;27.10
44429;BMP180;30134;47.866;-4.222;2022-08-19T11:02:23;101952.00;;;27.00
44429;BMP180;30134;47.866;-4.222;2022-08-19T11:04:49;101954.00;;;27.20
44429;BMP180;30134;47.866;-4.222;2022-08-19T11:07:17;101957.00;;;27.20
44429;BMP180;30134;47.866;-4.222;2022-08-19T11:09:43;101961.00;;;27.10
44429;BMP180;30134;47.866;-4.222;2022-08-19T11:12:09;101951.00;;;27.10
44429;BMP180;30134;47.866;-4.222;2022-08-19T11:14:37;101950.00;;;27.30
44429;BMP180;30134;47.866;-4.222;2022-08-19T11:17:04;101959.00;;;27.30
44429;BMP180;30134;47.866;-4.222;2022-08-19T11:19:31;101954.00;;;27.10
44429;BMP180;30134;47.866;-4.222;2022-08-19T11:21:58;101959.00;;;27.10
44429;BMP180;30134;47.866;-4.222;2022-08-19T11:24:27;101966.00;;;27.40
44429;BMP180;30134;47.866;-4.222;2022-08-19T11:27:07;101964.00;;;27.40
44429;BMP180;30134;47.866;-4.222;2022-08-19T11:29:35;101967.00;;;27.20
44429;BMP180;30134;47.866;-4.222;2022-08-19T11:32:05;101966.00;;;27.30
44429;BMP180;30134;47.866;-4.222;2022-08-19T11:34:31;101983.00;;;27.40
44429;BMP180;30134;47.866;-4.222;2022-08-19T11:36:57;101984.00;;;27.40
44429;BMP180;30134;47.866;-4.222;2022-08-19T11:39:27;101980.00;;;27.30
44429;BMP180;30134;47.866;-4.222;2022-08-19T11:41:53;101981.00;;;27.20
44429;BMP180;30134;47.866;-4.222;2022-08-19T11:44:19;101986.00;;;27.10
44429;BMP180;30134;47.866;-4.222;2022-08-19T11:46:46;101981.00;;;27.30
44429;BMP180;30134;47.866;-4.222;2022-08-19T11:49:13;101975.00;;;27.30
44429;BMP180;30134;47.866;-4.222;2022-08-19T11:51:40;101983.00;;;27.30
44429;BMP180;30134;47.866;-4.222;2022-08-19T11:54:08;101970.00;;;27.40
44429;BMP180;30134;47.866;-4.222;2022-08-19T11:56:36;101971.00;;;27.20
44429;BMP180;30134;47.866;-4.222;2022-08-19T11:59:02;101980.00;;;27.50
44429;BMP180;30134;47.866;-4.222;2022-08-19T12:01:28;101976.00;;;27.40
44429;BMP180;30134;47.866;-4.222;2022-08-19T12:03:55;101989.00;;;27.40
44429;BMP180;30134;47.866;-4.222;2022-08-19T12:06:30;101996.00;;;27.30
44429;BMP180;30134;47.866;-4.222;2022-08-19T12:08:59;101984.00;;;27.50
44429;BMP180;30134;47.866;-4.222;2022-08-19T12:11:26;101990.00;;;27.40
44429;BMP180;30134;47.866;-4.222;2022-08-19T12:13:52;101980.00;;;27.40
44429;BMP180;30134;47.866;-4.222;2022-08-19T12:16:22;101972.00;;;27.40
44429;BMP180;30134;47.866;-4.222;2022-08-19T12:18:49;101976.00;;;27.30
44429;BMP180;30134;47.866;-4.222;2022-08-19T12:21:19;101972.00;;;27.40
44429;BMP180;30134;47.866;-4.222;2022-08-19T12:23:47;101970.00;;;27.40
44429;BMP180;30134;47.866;-4.222;2022-08-19T12:26:14;101955.00;;;27.30
44429;BMP180;30134;47.866;-4.222;2022-08-19T12:28:40;101967.00;;;27.40
44429;BMP180;30134;47.866;-4.222;2022-08-19T12:31:07;101969.00;;;27.50
44429;BMP180;30134;47.866;-4.222;2022-08-19T12:33:34;101972.00;;;27.50
44429;BMP180;30134;47.866;-4.222;2022-08-19T12:36:02;101966.00;;;27.50
44429;BMP180;30134;47.866;-4.222;2022-08-19T12:38:29;101973.00;;;27.40
44429;BMP180;30134;47.866;-4.222;2022-08-19T12:40:55;101965.00;;;27.30
44429;BMP180;30134;47.866;-4.222;2022-08-19T12:43:23;101972.00;;;27.40
44429;BMP180;30134;47.866;-4.222;2022-08-19T12:45:48;101966.00;;;27.40
44429;BMP180;30134;47.866;-4.222;2022-08-19T12:48:15;101970.00;;;27.50
44429;BMP180;30134;47.866;-4.222;2022-08-19T12:50:43;101970.00;;;27.40
44429;BMP180;30134;47.866;-4.222;2022-08-19T12:53:11;101962.00;;;27.40
44429;BMP180;30134;47.866;-4.222;2022-08-19T12:55:38;101953.00;;;27.50
44429;BMP180;30134;47.866;-4.222;2022-08-19T12:58:04;101956.00;;;27.40
44429;BMP180;30134;47.866;-4.222;2022-08-19T13:00:30;101959.00;;;27.40
44429;BMP180;30134;47.866;-4.222;2022-08-19T13:02:58;101946.00;;;27.40
44429;BMP180;30134;47.866;-4.222;2022-08-19T13:05:27;101939.00;;;27.40
44429;BMP180;30134;47.866;-4.222;2022-08-19T13:07:55;101931.00;;;27.60
44429;BMP180;30134;47.866;-4.222;2022-08-19T13:10:24;101930.00;;;27.40
44429;BMP180;30134;47.866;-4.222;2022-08-19T13:12:53;101936.00;;;27.40
44429;BMP180;30134;47.866;-4.222;2022-08-19T13:15:21;101929.00;;;27.20
44429;BMP180;30134;47.866;-4.222;2022-08-19T13:17:48;101934.00;;;27.40
44429;BMP180;30134;47.866;-4.222;2022-08-19T13:20:16;101939.00;;;27.30
44429;BMP180;30134;47.866;-4.222;2022-08-19T13:22:44;101940.00;;;27.50
44429;BMP180;30134;47.866;-4.222;2022-08-19T13:25:12;101937.00;;;27.40
44429;BMP180;30134;47.866;-4.222;2022-08-19T13:27:39;101939.00;;;27.20
44429;BMP180;30134;47.866;-4.222;2022-08-19T13:30:07;101946.00;;;27.30
44429;BMP180;30134;47.866;-4.222;2022-08-19T13:32:51;101941.00;;;27.30
44429;BMP180;30134;47.866;-4.222;2022-08-19T13:38:14;101945.00;;;27.30
44429;BMP180;30134;47.866;-4.222;2022-08-19T13:40:42;101933.00;;;27.40
44429;BMP180;30134;47.866;-4.222;2022-08-19T13:43:08;101941.00;;;27.50
44429;BMP180;30134;47.866;-4.222;2022-08-19T13:45:35;101933.00;;;27.50
44429;BMP180;30134;47.866;-4.222;2022-08-19T13:48:03;101936.00;;;27.30
44429;BMP180;30134;47.866;-4.222;2022-08-19T13:50:39;101939.00;;;27.40
44429;BMP180;30134;47.866;-4.222;2022-08-19T13:53:09;101937.00;;;27.50
44429;BMP180;30134;47.866;-4.222;2022-08-19T13:55:38;101943.00;;;27.50
44429;BMP180;30134;47.866;-4.222;2022-08-19T13:58:04;101932.00;;;27.40
44429;BMP180;30134;47.866;-4.222;2022-08-19T14:00:36;101938.00;;;27.40
44429;BMP180;30134;47.866;-4.222;2022-08-19T14:03:03;101935.00;;;27.30